sensor_id;sensor_type;location;lat;lon;timestamp;P1;durP1;ratioP1;P2;durP2;ratioP2
6422;SDS011;3244;42.708;23.288;2023-04-01T00:01:26;32.63;;;13.45;;
6422;SDS011;3244;42.708;23.288;2023-04-01T00:03:53;26.35;;;15.00;;
6422;SDS011;3244;42.708;23.288;2023-04-01T00:06:21;29.02;;;13.98;;
6422;SDS011;3244;42.708;23.288;2023-04-01T00:08:48;24.67;;;14.07;;
6422;SDS011;3244;42.708;23.288;2023-04-01T00:11:15;29.80;;;14.63;;
6422;SDS011;3244;42.708;23.288;2023-04-01T00:13:43;27.23;;;14.98;;
6422;SDS011;3244;42.708;23.288;2023-04-01T00:16:10;28.55;;;14.80;;
6422;SDS011;3244;42.708;23.288;2023-04-01T00:18:37;24.85;;;15.00;;
6422;SDS011;3244;42.708;23.288;2023-04-01T00:21:04;26.95;;;14.00;;
6422;SDS011;3244;42.708;23.288;2023-04-01T00:23:31;21.58;;;15.13;;
6422;SDS011;3244;42.708;23.288;2023-04-01T00:25:58;22.67;;;13.80;;
6422;SDS011;3244;42.708;23.288;2023-04-01T00:28:25;28.13;;;13.57;;
6422;SDS011;3244;42.708;23.288;2023-04-01T00:30:54;29.80;;;13.13;;
6422;SDS011;3244;42.708;23.288;2023-04-01T00:33:21;22.80;;;13.82;;
6422;SDS011;3244;42.708;23.288;2023-04-01T00:35:48;19.80;;;12.98;;
6422;SDS011;3244;42.708;23.288;2023-04-01T00:38:15;19.55;;;11.70;;
6422;SDS011;3244;42.708;23.288;2023-04-01T00:40:44;21.48;;;13.10;;
6422;SDS011;3244;42.708;23.288;2023-04-01T00:43:12;24.20;;;12.77;;
6422;SDS011;3244;42.708;23.288;2023-04-01T00:45:43;21.60;;;12.55;;
6422;SDS011;3244;42.708;23.288;2023-04-01T00:48:12;23.63;;;11.85;;
6422;SDS011;3244;42.708;23.288;2023-04-01T00:50:43;18.70;;;11.52;;
6422;SDS011;3244;42.708;23.288;2023-04-01T00:53:13;20.33;;;13.48;;
6422;SDS011;3244;42.708;23.288;2023-04-01T00:55:41;23.67;;;11.77;;
6422;SDS011;3244;42.708;23.288;2023-04-01T00:58:13;18.77;;;10.48;;
6422;SDS011;3244;42.708;23.288;2023-04-01T01:00:43;19.00;;;10.77;;
6422;SDS011;3244;42.708;23.288;2023-04-01T01:03:14;18.70;;;11.55;;
6422;SDS011;3244;42.708;23.288;2023-04-01T01:08:46;14.90;;;10.63;;
6422;SDS011;3244;42.708;23.288;2023-04-01T01:11:23;16.70;;;10.35;;
6422;SDS011;3244;42.708;23.288;2023-04-01T01:13:56;17.73;;;10.30;;
6422;SDS011;3244;42.708;23.288;2023-04-01T01:16:30;15.57;;;10.43;;
6422;SDS011;3244;42.708;23.288;2023-04-01T01:19:03;18.80;;;10.00;;
6422;SDS011;3244;42.708;23.288;2023-04-01T01:21:51;22.63;;;10.75;;
6422;SDS011;3244;42.708;23.288;2023-04-01T01:24:39;22.65;;;10.82;;
6422;SDS011;3244;42.708;23.288;2023-04-01T01:27:17;16.65;;;10.63;;
6422;SDS011;3244;42.708;23.288;2023-04-01T01:30:08;15.70;;;10.77;;
6422;SDS011;3244;42.708;23.288;2023-04-01T01:35:46;16.25;;;11.02;;
6422;SDS011;3244;42.708;23.288;2023-04-01T01:38:16;25.70;;;10.70;;
6422;SDS011;3244;42.708;23.288;2023-04-01T01:40:45;16.75;;;9.90;;
6422;SDS011;3244;42.708;23.288;2023-04-01T01:43:18;17.92;;;10.95;;
6422;SDS011;3244;42.708;23.288;2023-04-01T01:45:49;14.43;;;9.52;;
6422;SDS011;3244;42.708;23.288;2023-04-01T01:48:20;16.35;;;10.00;;
6422;SDS011;3244;42.708;23.288;2023-04-01T01:50:50;20.08;;;9.38;;
6422;SDS011;3244;42.708;23.288;2023-04-01T01:53:18;16.52;;;9.48;;
6422;SDS011;3244;42.708;23.288;2023-04-01T01:55:45;15.88;;;9.45;;
6422;SDS011;3244;42.708;23.288;2023-04-01T01:58:13;15.68;;;9.93;;
6422;SDS011;3244;42.708;23.288;2023-04-01T02:00:46;19.48;;;10.52;;
6422;SDS011;3244;42.708;23.288;2023-04-01T02:03:16;18.60;;;10.32;;
6422;SDS011;3244;42.708;23.288;2023-04-01T02:05:47;15.43;;;9.93;;
6422;SDS011;3244;42.708;23.288;2023-04-01T02:08:18;19.13;;;10.48;;
6422;SDS011;3244;42.708;23.288;2023-04-01T02:10:49;21.30;;;11.45;;
6422;SDS011;3244;42.708;23.288;2023-04-01T02:13:25;15.60;;;9.60;;
6422;SDS011;3244;42.708;23.288;2023-04-01T02:15:57;13.90;;;9.85;;
6422;SDS011;3244;42.708;23.288;2023-04-01T02:18:29;15.10;;;9.45;;
6422;SDS011;3244;42.708;23.288;2023-04-01T02:20:59;18.58;;;10.05;;
6422;SDS011;3244;42.708;23.288;2023-04-01T02:23:28;18.50;;;9.40;;
6422;SDS011;3244;42.708;23.288;2023-04-01T02:25:55;17.05;;;9.00;;
6422;SDS011;3244;42.708;23.288;2023-04-01T02:28:22;16.98;;;9.75;;
6422;SDS011;3244;42.708;23.288;2023-04-01T02:30:50;14.88;;;9.52;;
6422;SDS011;3244;42.708;23.288;2023-04-01T02:33:18;14.73;;;9.63;;
6422;SDS011;3244;42.708;23.288;2023-04-01T02:35:46;17.58;;;10.20;;
6422;SDS011;3244;42.708;23.288;2023-04-01T02:38:13;15.68;;;9.27;;
6422;SDS011;3244;42.708;23.288;2023-04-01T02:40:43;11.60;;;8.68;;
6422;SDS011;3244;42.708;23.288;2023-04-01T02:43:11;15.63;;;10.27;;
6422;SDS011;3244;42.708;23.288;2023-04-01T02:45:38;18.60;;;9.52;;
6422;SDS011;3244;42.708;23.288;2023-04-01T02:48:05;14.98;;;9.05;;
6422;SDS011;3244;42.708;23.288;2023-04-01T02:50:32;17.45;;;10.48;;
6422;SDS011;3244;42.708;23.288;2023-04-01T02:52:59;28.92;;;14.32;;
6422;SDS011;3244;42.708;23.288;2023-04-01T02:55:27;25.52;;;14.45;;
6422;SDS011;3244;42.708;23.288;2023-04-01T02:57:56;27.15;;;14.00;;
6422;SDS011;3244;42.708;23.288;2023-04-01T03:00:23;25.80;;;13.77;;
6422;SDS011;3244;42.708;23.288;2023-04-01T03:02:50;22.05;;;13.65;;
6422;SDS011;3244;42.708;23.288;2023-04-01T03:05:17;22.25;;;14.55;;
6422;SDS011;3244;42.708;23.288;2023-04-01T03:07:44;28.73;;;15.57;;
6422;SDS011;3244;42.708;23.288;2023-04-01T03:10:11;27.80;;;16.75;;
6422;SDS011;3244;42.708;23.288;2023-04-01T03:12:37;29.63;;;16.90;;
6422;SDS011;3244;42.708;23.288;2023-04-01T03:15:06;26.63;;;16.08;;
6422;SDS011;3244;42.708;23.288;2023-04-01T03:17:35;31.42;;;16.80;;
6422;SDS011;3244;42.708;23.288;2023-04-01T03:20:02;23.90;;;16.40;;
6422;SDS011;3244;42.708;23.288;2023-04-01T03:22:30;26.25;;;14.50;;
6422;SDS011;3244;42.708;23.288;2023-04-01T03:24:56;25.55;;;14.52;;
6422;SDS011;3244;42.708;23.288;2023-04-01T03:27:23;30.50;;;13.88;;
6422;SDS011;3244;42.708;23.288;2023-04-01T03:29:50;20.40;;;14.45;;
6422;SDS011;3244;42.708;23.288;2023-04-01T03:32:18;26.05;;;13.13;;
6422;SDS011;3244;42.708;23.288;2023-04-01T03:34:44;26.75;;;12.48;;
6422;SDS011;3244;42.708;23.288;2023-04-01T03:37:11;23.92;;;12.70;;
6422;SDS011;3244;42.708;23.288;2023-04-01T03:39:39;22.33;;;13.05;;
6422;SDS011;3244;42.708;23.288;2023-04-01T03:42:05;23.48;;;13.07;;
6422;SDS011;3244;42.708;23.288;2023-04-01T03:44:32;30.08;;;12.82;;
6422;SDS011;3244;42.708;23.288;2023-04-01T03:46:59;17.05;;;10.45;;
6422;SDS011;3244;42.708;23.288;2023-04-01T03:49:28;21.27;;;10.80;;
6422;SDS011;3244;42.708;23.288;2023-04-01T03:51:54;21.85;;;9.73;;
6422;SDS011;3244;42.708;23.288;2023-04-01T03:54:21;16.08;;;9.75;;
6422;SDS011;3244;42.708;23.288;2023-04-01T03:56:48;14.85;;;9.48;;
6422;SDS011;3244;42.708;23.288;2023-04-01T03:59:15;17.75;;;9.77;;
6422;SDS011;3244;42.708;23.288;2023-04-01T04:01:41;16.95;;;9.20;;
6422;SDS011;3244;42.708;23.288;2023-04-01T04:04:10;16.40;;;9.88;;
6422;SDS011;3244;42.708;23.288;2023-04-01T04:06:39;9.77;;;8.10;;
6422;SDS011;3244;42.708;23.288;2023-04-01T04:09:06;15.05;;;9.57;;
6422;SDS011;3244;42.708;23.288;2023-04-01T04:11:32;17.70;;;9.10;;
6422;SDS011;3244;42.708;23.288;2023-04-01T04:13:59;18.05;;;8.93;;
6422;SDS011;3244;42.708;23.288;2023-04-01T04:16:27;15.60;;;8.43;;
6422;SDS011;3244;42.708;23.288;2023-04-01T04:18:53;12.52;;;7.78;;
6422;SDS011;3244;42.708;23.288;2023-04-01T04:21:20;14.18;;;8.55;;
6422;SDS011;3244;42.708;23.288;2023-04-01T04:23:48;11.10;;;7.80;;
6422;SDS011;3244;42.708;23.288;2023-04-01T04:26:15;19.90;;;8.75;;
6422;SDS011;3244;42.708;23.288;2023-04-01T04:28:42;12.88;;;9.10;;
6422;SDS011;3244;42.708;23.288;2023-04-01T04:31:09;14.73;;;8.82;;
6422;SDS011;3244;42.708;23.288;2023-04-01T04:33:35;15.75;;;8.80;;
6422;SDS011;3244;42.708;23.288;2023-04-01T04:36:03;15.45;;;8.93;;
6422;SDS011;3244;42.708;23.288;2023-04-01T04:38:30;24.10;;;11.68;;
6422;SDS011;3244;42.708;23.288;2023-04-01T04:40:58;19.65;;;8.43;;
6422;SDS011;3244;42.708;23.288;2023-04-01T04:43:25;11.85;;;7.60;;
6422;SDS011;3244;42.708;23.288;2023-04-01T04:45:52;13.63;;;7.80;;
6422;SDS011;3244;42.708;23.288;2023-04-01T04:48:18;11.30;;;8.48;;
6422;SDS011;3244;42.708;23.288;2023-04-01T04:50:46;13.07;;;8.23;;
6422;SDS011;3244;42.708;23.288;2023-04-01T04:53:13;12.57;;;7.72;;
6422;SDS011;3244;42.708;23.288;2023-04-01T04:55:42;7.93;;;7.13;;
6422;SDS011;3244;42.708;23.288;2023-04-01T04:58:11;8.45;;;7.65;;
6422;SDS011;3244;42.708;23.288;2023-04-01T05:00:38;16.98;;;8.25;;
6422;SDS011;3244;42.708;23.288;2023-04-01T05:03:05;15.30;;;7.10;;
6422;SDS011;3244;42.708;23.288;2023-04-01T05:05:33;14.13;;;7.90;;
6422;SDS011;3244;42.708;23.288;2023-04-01T05:08:00;11.77;;;7.65;;
6422;SDS011;3244;42.708;23.288;2023-04-01T05:10:27;12.07;;;7.30;;
6422;SDS011;3244;42.708;23.288;2023-04-01T05:12:54;9.55;;;7.30;;
6422;SDS011;3244;42.708;23.288;2023-04-01T05:15:22;12.98;;;8.23;;
6422;SDS011;3244;42.708;23.288;2023-04-01T05:17:49;17.83;;;8.13;;
6422;SDS011;3244;42.708;23.288;2023-04-01T05:20:16;18.52;;;9.77;;
6422;SDS011;3244;42.708;23.288;2023-04-01T05:22:43;12.07;;;9.02;;
6422;SDS011;3244;42.708;23.288;2023-04-01T05:25:09;14.40;;;8.88;;
6422;SDS011;3244;42.708;23.288;2023-04-01T05:27:36;14.13;;;9.15;;
6422;SDS011;3244;42.708;23.288;2023-04-01T05:30:03;24.08;;;8.77;;
6422;SDS011;3244;42.708;23.288;2023-04-01T05:32:32;13.60;;;8.05;;
6422;SDS011;3244;42.708;23.288;2023-04-01T05:34:59;18.17;;;9.00;;
6422;SDS011;3244;42.708;23.288;2023-04-01T05:37:25;19.55;;;9.82;;
6422;SDS011;3244;42.708;23.288;2023-04-01T05:39:52;19.20;;;9.35;;
6422;SDS011;3244;42.708;23.288;2023-04-01T05:42:19;21.38;;;10.63;;
6422;SDS011;3244;42.708;23.288;2023-04-01T05:44:45;20.17;;;11.10;;
6422;SDS011;3244;42.708;23.288;2023-04-01T05:47:12;21.05;;;10.80;;
6422;SDS011;3244;42.708;23.288;2023-04-01T05:49:40;19.67;;;10.63;;
6422;SDS011;3244;42.708;23.288;2023-04-01T05:52:07;18.20;;;10.13;;
6422;SDS011;3244;42.708;23.288;2023-04-01T05:54:34;16.60;;;9.48;;
6422;SDS011;3244;42.708;23.288;2023-04-01T05:57:01;16.70;;;9.43;;
6422;SDS011;3244;42.708;23.288;2023-04-01T05:59:28;13.15;;;8.50;;
6422;SDS011;3244;42.708;23.288;2023-04-01T06:01:56;19.75;;;7.57;;
6422;SDS011;3244;42.708;23.288;2023-04-01T06:04:23;12.25;;;8.05;;
6422;SDS011;3244;42.708;23.288;2023-04-01T06:06:52;11.15;;;6.78;;
6422;SDS011;3244;42.708;23.288;2023-04-01T06:09:19;14.55;;;7.45;;
6422;SDS011;3244;42.708;23.288;2023-04-01T06:11:57;12.30;;;7.28;;
6422;SDS011;3244;42.708;23.288;2023-04-01T06:14:36;10.20;;;5.50;;
6422;SDS011;3244;42.708;23.288;2023-04-01T06:17:16;14.05;;;5.35;;
6422;SDS011;3244;42.708;23.288;2023-04-01T06:19:53;11.52;;;5.72;;
6422;SDS011;3244;42.708;23.288;2023-04-01T06:28:30;7.63;;;5.68;;
6422;SDS011;3244;42.708;23.288;2023-04-01T06:31:14;13.45;;;6.00;;
6422;SDS011;3244;42.708;23.288;2023-04-01T06:33:54;11.63;;;4.78;;
6422;SDS011;3244;42.708;23.288;2023-04-01T06:36:40;12.05;;;5.85;;
6422;SDS011;3244;42.708;23.288;2023-04-01T06:39:29;13.52;;;5.50;;
6422;SDS011;3244;42.708;23.288;2023-04-01T06:42:21;7.57;;;5.10;;
6422;SDS011;3244;42.708;23.288;2023-04-01T06:44:59;16.50;;;5.78;;
6422;SDS011;3244;42.708;23.288;2023-04-01T06:47:42;11.52;;;5.10;;
6422;SDS011;3244;42.708;23.288;2023-04-01T06:50:22;8.27;;;4.28;;
6422;SDS011;3244;42.708;23.288;2023-04-01T06:52:55;11.95;;;5.95;;
6422;SDS011;3244;42.708;23.288;2023-04-01T06:55:29;5.65;;;4.70;;
6422;SDS011;3244;42.708;23.288;2023-04-01T06:58:03;6.57;;;4.82;;
6422;SDS011;3244;42.708;23.288;2023-04-01T07:00:34;7.82;;;5.00;;
6422;SDS011;3244;42.708;23.288;2023-04-01T07:03:07;8.27;;;4.97;;
6422;SDS011;3244;42.708;23.288;2023-04-01T07:05:45;6.25;;;4.70;;
6422;SDS011;3244;42.708;23.288;2023-04-01T07:08:13;8.43;;;5.20;;
6422;SDS011;3244;42.708;23.288;2023-04-01T07:10:47;9.88;;;5.10;;
6422;SDS011;3244;42.708;23.288;2023-04-01T07:13:18;6.68;;;4.15;;
6422;SDS011;3244;42.708;23.288;2023-04-01T07:15:54;6.95;;;3.88;;
6422;SDS011;3244;42.708;23.288;2023-04-01T07:18:29;10.82;;;5.47;;
6422;SDS011;3244;42.708;23.288;2023-04-01T07:20:59;5.75;;;5.13;;
6422;SDS011;3244;42.708;23.288;2023-04-01T07:23:28;7.53;;;4.70;;
6422;SDS011;3244;42.708;23.288;2023-04-01T07:26:04;7.20;;;4.47;;
6422;SDS011;3244;42.708;23.288;2023-04-01T07:28:38;14.02;;;5.20;;
6422;SDS011;3244;42.708;23.288;2023-04-01T07:31:07;6.25;;;4.63;;
6422;SDS011;3244;42.708;23.288;2023-04-01T07:33:46;9.82;;;5.25;;
6422;SDS011;3244;42.708;23.288;2023-04-01T07:36:21;16.42;;;4.40;;
6422;SDS011;3244;42.708;23.288;2023-04-01T07:38:56;9.35;;;4.15;;
6422;SDS011;3244;42.708;23.288;2023-04-01T07:41:35;9.18;;;5.25;;
6422;SDS011;3244;42.708;23.288;2023-04-01T07:44:13;8.38;;;5.05;;
6422;SDS011;3244;42.708;23.288;2023-04-01T07:46:56;9.70;;;5.07;;
6422;SDS011;3244;42.708;23.288;2023-04-01T07:49:35;7.85;;;5.03;;
6422;SDS011;3244;42.708;23.288;2023-04-01T07:52:12;13.40;;;5.25;;
6422;SDS011;3244;42.708;23.288;2023-04-01T07:54:48;14.60;;;5.70;;
6422;SDS011;3244;42.708;23.288;2023-04-01T07:57:22;9.63;;;5.22;;
6422;SDS011;3244;42.708;23.288;2023-04-01T07:59:57;13.95;;;9.85;;
6422;SDS011;3244;42.708;23.288;2023-04-01T08:02:30;17.33;;;7.65;;
6422;SDS011;3244;42.708;23.288;2023-04-01T08:05:14;9.20;;;6.30;;
6422;SDS011;3244;42.708;23.288;2023-04-01T08:07:49;11.32;;;5.80;;
6422;SDS011;3244;42.708;23.288;2023-04-01T08:10:26;12.95;;;6.88;;
6422;SDS011;3244;42.708;23.288;2023-04-01T08:13:02;12.55;;;6.13;;
6422;SDS011;3244;42.708;23.288;2023-04-01T08:15:40;8.00;;;5.97;;
6422;SDS011;3244;42.708;23.288;2023-04-01T08:18:16;10.18;;;5.88;;
6422;SDS011;3244;42.708;23.288;2023-04-01T08:20:55;14.85;;;6.70;;
6422;SDS011;3244;42.708;23.288;2023-04-01T08:23:26;10.07;;;6.20;;
6422;SDS011;3244;42.708;23.288;2023-04-01T08:25:56;12.20;;;5.93;;
6422;SDS011;3244;42.708;23.288;2023-04-01T08:28:30;22.48;;;7.65;;
6422;SDS011;3244;42.708;23.288;2023-04-01T08:31:02;9.98;;;4.57;;
6422;SDS011;3244;42.708;23.288;2023-04-01T08:33:32;12.15;;;5.22;;
6422;SDS011;3244;42.708;23.288;2023-04-01T08:36:02;9.15;;;5.78;;
6422;SDS011;3244;42.708;23.288;2023-04-01T08:38:32;9.60;;;4.97;;
6422;SDS011;3244;42.708;23.288;2023-04-01T08:41:10;12.85;;;5.88;;
6422;SDS011;3244;42.708;23.288;2023-04-01T08:44:07;13.32;;;5.60;;
6422;SDS011;3244;42.708;23.288;2023-04-01T08:50:07;9.27;;;4.32;;
6422;SDS011;3244;42.708;23.288;2023-04-01T08:52:49;8.07;;;4.90;;
6422;SDS011;3244;42.708;23.288;2023-04-01T08:55:30;4.13;;;3.72;;
6422;SDS011;3244;42.708;23.288;2023-04-01T09:01:13;7.90;;;3.90;;
6422;SDS011;3244;42.708;23.288;2023-04-01T09:06:42;7.20;;;3.85;;
6422;SDS011;3244;42.708;23.288;2023-04-01T09:20:57;8.60;;;3.30;;
6422;SDS011;3244;42.708;23.288;2023-04-01T09:27:01;10.05;;;3.60;;
6422;SDS011;3244;42.708;23.288;2023-04-01T09:29:35;10.45;;;4.72;;
6422;SDS011;3244;42.708;23.288;2023-04-01T09:32:23;11.38;;;3.47;;
6422;SDS011;3244;42.708;23.288;2023-04-01T09:35:07;8.30;;;3.80;;
6422;SDS011;3244;42.708;23.288;2023-04-01T09:37:51;9.60;;;3.70;;
6422;SDS011;3244;42.708;23.288;2023-04-01T09:40:22;3.90;;;3.58;;
6422;SDS011;3244;42.708;23.288;2023-04-01T09:45:48;6.07;;;3.28;;
6422;SDS011;3244;42.708;23.288;2023-04-01T09:51:35;6.20;;;4.10;;
6422;SDS011;3244;42.708;23.288;2023-04-01T09:54:18;11.57;;;4.05;;
6422;SDS011;3244;42.708;23.288;2023-04-01T09:57:19;7.18;;;3.95;;
6422;SDS011;3244;42.708;23.288;2023-04-01T10:03:30;6.60;;;3.38;;
6422;SDS011;3244;42.708;23.288;2023-04-01T10:06:57;7.30;;;3.38;;
6422;SDS011;3244;42.708;23.288;2023-04-01T10:16:25;5.35;;;2.88;;
6422;SDS011;3244;42.708;23.288;2023-04-01T10:28:30;5.35;;;3.47;;
6422;SDS011;3244;42.708;23.288;2023-04-01T10:37:41;8.98;;;4.10;;
6422;SDS011;3244;42.708;23.288;2023-04-01T10:40:36;7.38;;;3.00;;
6422;SDS011;3244;42.708;23.288;2023-04-01T10:43:28;8.88;;;3.55;;
6422;SDS011;3244;42.708;23.288;2023-04-01T10:49:22;5.00;;;3.45;;
6422;SDS011;3244;42.708;23.288;2023-04-01T10:55:27;12.45;;;4.18;;
6422;SDS011;3244;42.708;23.288;2023-04-01T11:13:36;8.27;;;3.83;;
6422;SDS011;3244;42.708;23.288;2023-04-01T11:16:37;12.52;;;3.33;;
6422;SDS011;3244;42.708;23.288;2023-04-01T11:19:28;6.90;;;3.70;;
6422;SDS011;3244;42.708;23.288;2023-04-01T11:22:31;4.70;;;3.55;;
6422;SDS011;3244;42.708;23.288;2023-04-01T11:25:36;11.75;;;8.63;;
6422;SDS011;3244;42.708;23.288;2023-04-01T11:31:16;5.57;;;5.10;;
6422;SDS011;3244;42.708;23.288;2023-04-01T11:34:09;8.80;;;3.72;;
6422;SDS011;3244;42.708;23.288;2023-04-01T11:36:51;6.80;;;2.78;;
6422;SDS011;3244;42.708;23.288;2023-04-01T11:39:29;7.50;;;2.58;;
6422;SDS011;3244;42.708;23.288;2023-04-01T11:42:10;12.70;;;3.40;;
6422;SDS011;3244;42.708;23.288;2023-04-01T11:44:48;6.75;;;2.45;;
6422;SDS011;3244;42.708;23.288;2023-04-01T11:47:30;11.68;;;2.20;;
6422;SDS011;3244;42.708;23.288;2023-04-01T11:50:15;6.63;;;2.42;;
6422;SDS011;3244;42.708;23.288;2023-04-01T11:53:05;10.55;;;2.55;;
6422;SDS011;3244;42.708;23.288;2023-04-01T11:55:54;8.65;;;2.90;;
6422;SDS011;3244;42.708;23.288;2023-04-01T11:58:33;8.25;;;2.25;;
6422;SDS011;3244;42.708;23.288;2023-04-01T12:01:19;3.90;;;1.98;;
6422;SDS011;3244;42.708;23.288;2023-04-01T12:03:55;8.73;;;2.50;;
6422;SDS011;3244;42.708;23.288;2023-04-01T12:06:33;4.93;;;2.20;;
6422;SDS011;3244;42.708;23.288;2023-04-01T12:09:11;6.80;;;3.10;;
6422;SDS011;3244;42.708;23.288;2023-04-01T12:11:45;7.47;;;3.00;;
6422;SDS011;3244;42.708;23.288;2023-04-01T12:14:19;10.45;;;3.55;;
6422;SDS011;3244;42.708;23.288;2023-04-01T12:16:54;3.70;;;3.28;;
6422;SDS011;3244;42.708;23.288;2023-04-01T12:19:31;7.63;;;3.80;;
6422;SDS011;3244;42.708;23.288;2023-04-01T12:24:56;6.53;;;3.30;;
6422;SDS011;3244;42.708;23.288;2023-04-01T12:27:33;6.75;;;3.55;;
6422;SDS011;3244;42.708;23.288;2023-04-01T12:30:12;9.52;;;3.70;;
6422;SDS011;3244;42.708;23.288;2023-04-01T12:32:52;7.82;;;3.42;;
6422;SDS011;3244;42.708;23.288;2023-04-01T12:35:27;3.65;;;3.35;;
6422;SDS011;3244;42.708;23.288;2023-04-01T12:38:06;5.05;;;3.33;;
6422;SDS011;3244;42.708;23.288;2023-04-01T12:40:45;4.80;;;3.30;;
6422;SDS011;3244;42.708;23.288;2023-04-01T12:43:28;5.30;;;3.47;;
6422;SDS011;3244;42.708;23.288;2023-04-01T12:46:11;3.97;;;2.90;;
6422;SDS011;3244;42.708;23.288;2023-04-01T13:00:56;8.07;;;4.55;;
6422;SDS011;3244;42.708;23.288;2023-04-01T13:03:43;7.38;;;4.38;;
6422;SDS011;3244;42.708;23.288;2023-04-01T13:06:24;12.40;;;9.20;;
6422;SDS011;3244;42.708;23.288;2023-04-01T13:09:01;6.63;;;5.88;;
6422;SDS011;3244;42.708;23.288;2023-04-01T13:11:44;9.45;;;5.32;;
6422;SDS011;3244;42.708;23.288;2023-04-01T13:14:28;8.88;;;4.50;;
6422;SDS011;3244;42.708;23.288;2023-04-01T13:17:08;7.57;;;5.32;;
6422;SDS011;3244;42.708;23.288;2023-04-01T13:19:44;6.80;;;5.40;;
6422;SDS011;3244;42.708;23.288;2023-04-01T13:22:19;6.13;;;3.92;;
6422;SDS011;3244;42.708;23.288;2023-04-01T13:24:49;7.15;;;4.68;;
6422;SDS011;3244;42.708;23.288;2023-04-01T13:27:25;8.70;;;5.75;;
6422;SDS011;3244;42.708;23.288;2023-04-01T13:30:01;7.45;;;4.10;;
6422;SDS011;3244;42.708;23.288;2023-04-01T13:32:44;9.10;;;5.22;;
6422;SDS011;3244;42.708;23.288;2023-04-01T13:35:19;7.38;;;4.63;;
6422;SDS011;3244;42.708;23.288;2023-04-01T13:38:03;6.38;;;3.70;;
6422;SDS011;3244;42.708;23.288;2023-04-01T13:40:45;6.05;;;4.70;;
6422;SDS011;3244;42.708;23.288;2023-04-01T13:43:19;5.70;;;2.67;;
6422;SDS011;3244;42.708;23.288;2023-04-01T13:45:57;2.50;;;2.30;;
6422;SDS011;3244;42.708;23.288;2023-04-01T13:51:50;2.75;;;2.08;;
6422;SDS011;3244;42.708;23.288;2023-04-01T13:54:43;3.63;;;1.88;;
6422;SDS011;3244;42.708;23.288;2023-04-01T13:57:23;3.60;;;1.83;;
6422;SDS011;3244;42.708;23.288;2023-04-01T14:03:12;5.82;;;5.30;;
6422;SDS011;3244;42.708;23.288;2023-04-01T14:05:55;4.20;;;3.50;;
6422;SDS011;3244;42.708;23.288;2023-04-01T14:11:48;4.70;;;2.40;;
6422;SDS011;3244;42.708;23.288;2023-04-01T14:14:26;2.88;;;2.58;;
6422;SDS011;3244;42.708;23.288;2023-04-01T14:17:13;3.67;;;2.00;;
6422;SDS011;3244;42.708;23.288;2023-04-01T14:19:58;2.00;;;1.90;;
6422;SDS011;3244;42.708;23.288;2023-04-01T14:22:41;1.80;;;1.70;;
6422;SDS011;3244;42.708;23.288;2023-04-01T14:25:30;1.73;;;1.63;;
6422;SDS011;3244;42.708;23.288;2023-04-01T14:28:11;2.33;;;1.90;;
6422;SDS011;3244;42.708;23.288;2023-04-01T14:30:48;3.65;;;3.33;;
6422;SDS011;3244;42.708;23.288;2023-04-01T14:33:28;2.80;;;2.58;;
6422;SDS011;3244;42.708;23.288;2023-04-01T14:36:12;5.93;;;4.38;;
6422;SDS011;3244;42.708;23.288;2023-04-01T14:38:58;2.03;;;1.75;;
6422;SDS011;3244;42.708;23.288;2023-04-01T14:41:37;2.17;;;1.80;;
6422;SDS011;3244;42.708;23.288;2023-04-01T14:44:24;5.55;;;3.92;;
6422;SDS011;3244;42.708;23.288;2023-04-01T14:47:08;3.80;;;2.80;;
6422;SDS011;3244;42.708;23.288;2023-04-01T14:49:49;6.78;;;2.95;;
6422;SDS011;3244;42.708;23.288;2023-04-01T14:52:22;5.55;;;3.88;;
6422;SDS011;3244;42.708;23.288;2023-04-01T14:54:53;4.63;;;2.65;;
6422;SDS011;3244;42.708;23.288;2023-04-01T14:57:23;4.72;;;3.78;;
6422;SDS011;3244;42.708;23.288;2023-04-01T14:59:54;3.88;;;2.90;;
6422;SDS011;3244;42.708;23.288;2023-04-01T15:02:36;4.43;;;2.20;;
6422;SDS011;3244;42.708;23.288;2023-04-01T15:05:16;4.65;;;2.08;;
6422;SDS011;3244;42.708;23.288;2023-04-01T15:08:05;2.53;;;2.42;;
6422;SDS011;3244;42.708;23.288;2023-04-01T15:10:48;5.63;;;2.38;;
6422;SDS011;3244;42.708;23.288;2023-04-01T15:13:24;5.53;;;3.65;;
6422;SDS011;3244;42.708;23.288;2023-04-01T15:16:13;9.20;;;5.50;;
6422;SDS011;3244;42.708;23.288;2023-04-01T15:18:51;6.40;;;3.50;;
6422;SDS011;3244;42.708;23.288;2023-04-01T15:21:30;6.25;;;2.85;;
6422;SDS011;3244;42.708;23.288;2023-04-01T15:24:12;4.00;;;3.10;;
6422;SDS011;3244;42.708;23.288;2023-04-01T15:29:50;2.97;;;2.78;;
6422;SDS011;3244;42.708;23.288;2023-04-01T15:32:37;3.33;;;2.97;;
6422;SDS011;3244;42.708;23.288;2023-04-01T15:35:14;3.97;;;3.00;;
6422;SDS011;3244;42.708;23.288;2023-04-01T15:37:53;4.50;;;3.30;;
6422;SDS011;3244;42.708;23.288;2023-04-01T15:40:23;6.35;;;4.45;;
6422;SDS011;3244;42.708;23.288;2023-04-01T15:43:05;7.35;;;3.58;;
6422;SDS011;3244;42.708;23.288;2023-04-01T15:45:49;6.53;;;3.85;;
6422;SDS011;3244;42.708;23.288;2023-04-01T15:48:30;3.70;;;1.63;;
6422;SDS011;3244;42.708;23.288;2023-04-01T15:51:21;2.35;;;1.00;;
6422;SDS011;3244;42.708;23.288;2023-04-01T15:54:02;1.33;;;1.17;;
6422;SDS011;3244;42.708;23.288;2023-04-01T15:56:51;2.13;;;2.03;;
6422;SDS011;3244;42.708;23.288;2023-04-01T15:59:34;2.15;;;2.05;;
6422;SDS011;3244;42.708;23.288;2023-04-01T16:02:15;2.60;;;2.40;;
6422;SDS011;3244;42.708;23.288;2023-04-01T16:04:50;2.60;;;2.40;;
6422;SDS011;3244;42.708;23.288;2023-04-01T16:07:43;2.45;;;2.13;;
6422;SDS011;3244;42.708;23.288;2023-04-01T16:10:24;4.25;;;2.83;;
6422;SDS011;3244;42.708;23.288;2023-04-01T16:13:03;5.10;;;2.78;;
6422;SDS011;3244;42.708;23.288;2023-04-01T16:15:44;3.15;;;2.85;;
6422;SDS011;3244;42.708;23.288;2023-04-01T16:18:24;2.90;;;2.80;;
6422;SDS011;3244;42.708;23.288;2023-04-01T16:21:08;6.35;;;2.35;;
6422;SDS011;3244;42.708;23.288;2023-04-01T16:23:42;3.13;;;2.88;;
6422;SDS011;3244;42.708;23.288;2023-04-01T16:26:17;4.15;;;3.35;;
6422;SDS011;3244;42.708;23.288;2023-04-01T16:28:50;3.03;;;2.83;;
6422;SDS011;3244;42.708;23.288;2023-04-01T16:31:26;3.33;;;3.03;;
6422;SDS011;3244;42.708;23.288;2023-04-01T16:33:59;3.70;;;2.90;;
6422;SDS011;3244;42.708;23.288;2023-04-01T16:36:34;2.90;;;2.60;;
6422;SDS011;3244;42.708;23.288;2023-04-01T16:39:09;5.68;;;2.63;;
6422;SDS011;3244;42.708;23.288;2023-04-01T16:41:53;3.20;;;2.33;;
6422;SDS011;3244;42.708;23.288;2023-04-01T16:44:44;2.58;;;2.47;;
6422;SDS011;3244;42.708;23.288;2023-04-01T16:47:17;2.85;;;2.65;;
6422;SDS011;3244;42.708;23.288;2023-04-01T16:49:48;3.13;;;2.92;;
6422;SDS011;3244;42.708;23.288;2023-04-01T16:52:32;2.08;;;1.75;;
6422;SDS011;3244;42.708;23.288;2023-04-01T16:55:13;2.00;;;1.90;;
6422;SDS011;3244;42.708;23.288;2023-04-01T16:57:44;1.70;;;1.60;;
6422;SDS011;3244;42.708;23.288;2023-04-01T17:00:17;2.63;;;2.42;;
6422;SDS011;3244;42.708;23.288;2023-04-01T17:02:52;1.95;;;1.85;;
6422;SDS011;3244;42.708;23.288;2023-04-01T17:05:35;2.38;;;1.83;;
6422;SDS011;3244;42.708;23.288;2023-04-01T17:08:10;2.70;;;1.67;;
6422;SDS011;3244;42.708;23.288;2023-04-01T17:10:48;2.45;;;2.35;;
6422;SDS011;3244;42.708;23.288;2023-04-01T17:13:27;2.45;;;2.33;;
6422;SDS011;3244;42.708;23.288;2023-04-01T17:16:10;2.10;;;2.00;;
6422;SDS011;3244;42.708;23.288;2023-04-01T17:18:50;1.80;;;1.70;;
6422;SDS011;3244;42.708;23.288;2023-04-01T17:21:38;2.10;;;2.00;;
6422;SDS011;3244;42.708;23.288;2023-04-01T17:24:21;2.05;;;1.73;;
6422;SDS011;3244;42.708;23.288;2023-04-01T17:26:59;1.73;;;1.63;;
6422;SDS011;3244;42.708;23.288;2023-04-01T17:29:46;1.95;;;1.85;;
6422;SDS011;3244;42.708;23.288;2023-04-01T17:32:31;1.52;;;1.52;;
6422;SDS011;3244;42.708;23.288;2023-04-01T17:35:11;1.88;;;1.55;;
6422;SDS011;3244;42.708;23.288;2023-04-01T17:37:45;2.75;;;2.55;;
6422;SDS011;3244;42.708;23.288;2023-04-01T17:43:19;2.28;;;2.17;;